Terminal Aerodrome Forecast
Issued by NWS Raleigh/Durham, NC

Home | Current Version | Previous Version | Text Only | Print | Product List | Glossary On
Versions: 1 2 3 4 5 6 7 8 9 10 11 12 13 14
000
FTUS42 KRAH 230537
TAFRDU
TAF
KRDU 230537Z 2306/2406 VRB02KT P6SM SCT060 BKN150 OVC250
      TEMPO 2309/2312 5SM BR
     FM231400 17006KT P6SM FEW040 SCT150 BKN250=

USA.gov is the U.S. government's official web portal to all federal, state and local government web resources and services.